sensor_id;sensor_type;location;lat;lon;timestamp;P1;durP1;ratioP1;P2;durP2;ratioP2
35745;SDS011;21870;42.812;74.628;2023-07-28T00:02:25;6.93;;;2.88;;
35745;SDS011;21870;42.812;74.628;2023-07-28T00:04:51;8.75;;;3.00;;
35745;SDS011;21870;42.812;74.628;2023-07-28T00:07:17;6.97;;;2.42;;
35745;SDS011;21870;42.812;74.628;2023-07-28T00:09:43;19.63;;;3.17;;
35745;SDS011;21870;42.812;74.628;2023-07-28T00:12:09;5.22;;;2.25;;
35745;SDS011;21870;42.812;74.628;2023-07-28T00:14:35;9.85;;;3.30;;
35745;SDS011;21870;42.812;74.628;2023-07-28T00:17:02;7.65;;;2.63;;
35745;SDS011;21870;42.812;74.628;2023-07-28T00:19:28;9.48;;;2.70;;
35745;SDS011;21870;42.812;74.628;2023-07-28T00:21:54;12.77;;;2.90;;
35745;SDS011;21870;42.812;74.628;2023-07-28T00:24:21;8.07;;;3.20;;
35745;SDS011;21870;42.812;74.628;2023-07-28T00:26:47;11.70;;;2.58;;
35745;SDS011;21870;42.812;74.628;2023-07-28T00:29:13;5.20;;;2.30;;
35745;SDS011;21870;42.812;74.628;2023-07-28T00:31:39;62.13;;;9.60;;
35745;SDS011;21870;42.812;74.628;2023-07-28T00:34:05;12.05;;;3.10;;
35745;SDS011;21870;42.812;74.628;2023-07-28T00:36:31;5.80;;;2.97;;
35745;SDS011;21870;42.812;74.628;2023-07-28T00:38:57;13.38;;;3.58;;
35745;SDS011;21870;42.812;74.628;2023-07-28T00:41:24;6.88;;;2.90;;
35745;SDS011;21870;42.812;74.628;2023-07-28T00:43:50;10.27;;;3.35;;
35745;SDS011;21870;42.812;74.628;2023-07-28T00:46:16;11.50;;;3.45;;
35745;SDS011;21870;42.812;74.628;2023-07-28T00:48:42;7.57;;;3.00;;
35745;SDS011;21870;42.812;74.628;2023-07-28T00:51:09;10.07;;;3.40;;
35745;SDS011;21870;42.812;74.628;2023-07-28T00:53:36;12.23;;;3.22;;
35745;SDS011;21870;42.812;74.628;2023-07-28T00:56:05;14.63;;;3.28;;
35745;SDS011;21870;42.812;74.628;2023-07-28T00:58:31;13.63;;;4.28;;
35745;SDS011;21870;42.812;74.628;2023-07-28T01:00:57;12.27;;;3.92;;
35745;SDS011;21870;42.812;74.628;2023-07-28T01:03:23;18.13;;;4.72;;
35745;SDS011;21870;42.812;74.628;2023-07-28T01:08:27;10.55;;;4.68;;
35745;SDS011;21870;42.812;74.628;2023-07-28T01:11:01;20.30;;;4.70;;
35745;SDS011;21870;42.812;74.628;2023-07-28T01:13:28;16.88;;;4.72;;
35745;SDS011;21870;42.812;74.628;2023-07-28T01:15:54;12.52;;;3.85;;
35745;SDS011;21870;42.812;74.628;2023-07-28T01:18:20;16.85;;;3.88;;
35745;SDS011;21870;42.812;74.628;2023-07-28T01:20:46;16.10;;;4.35;;
35745;SDS011;21870;42.812;74.628;2023-07-28T01:25:50;13.55;;;4.65;;
35745;SDS011;21870;42.812;74.628;2023-07-28T01:28:20;11.63;;;4.43;;
35745;SDS011;21870;42.812;74.628;2023-07-28T01:30:47;18.05;;;4.20;;
35745;SDS011;21870;42.812;74.628;2023-07-28T01:33:13;11.05;;;3.70;;
35745;SDS011;21870;42.812;74.628;2023-07-28T01:35:39;8.73;;;3.92;;
35745;SDS011;21870;42.812;74.628;2023-07-28T01:38:05;10.02;;;4.10;;
35745;SDS011;21870;42.812;74.628;2023-07-28T01:40:31;8.23;;;4.50;;
35745;SDS011;21870;42.812;74.628;2023-07-28T01:42:58;12.35;;;4.30;;
35745;SDS011;21870;42.812;74.628;2023-07-28T01:45:24;9.88;;;3.45;;
35745;SDS011;21870;42.812;74.628;2023-07-28T01:47:50;7.70;;;4.07;;
35745;SDS011;21870;42.812;74.628;2023-07-28T01:50:16;12.85;;;4.78;;
35745;SDS011;21870;42.812;74.628;2023-07-28T01:52:42;11.27;;;4.63;;
35745;SDS011;21870;42.812;74.628;2023-07-28T01:55:08;8.25;;;3.65;;
35745;SDS011;21870;42.812;74.628;2023-07-28T01:57:34;8.25;;;4.38;;
35745;SDS011;21870;42.812;74.628;2023-07-28T02:00:03;10.30;;;4.50;;
35745;SDS011;21870;42.812;74.628;2023-07-28T02:02:30;8.98;;;4.30;;
35745;SDS011;21870;42.812;74.628;2023-07-28T02:04:56;10.90;;;3.65;;
35745;SDS011;21870;42.812;74.628;2023-07-28T02:07:22;11.00;;;4.40;;
35745;SDS011;21870;42.812;74.628;2023-07-28T02:09:48;11.30;;;4.40;;
35745;SDS011;21870;42.812;74.628;2023-07-28T02:12:14;14.05;;;3.72;;
35745;SDS011;21870;42.812;74.628;2023-07-28T02:14:40;8.23;;;4.15;;
35745;SDS011;21870;42.812;74.628;2023-07-28T02:17:06;9.88;;;3.42;;
35745;SDS011;21870;42.812;74.628;2023-07-28T02:19:32;12.68;;;4.65;;
35745;SDS011;21870;42.812;74.628;2023-07-28T02:21:58;6.78;;;3.88;;
35745;SDS011;21870;42.812;74.628;2023-07-28T02:24:24;11.48;;;4.70;;
35745;SDS011;21870;42.812;74.628;2023-07-28T02:26:50;10.07;;;4.03;;
35745;SDS011;21870;42.812;74.628;2023-07-28T02:29:16;10.60;;;3.97;;
35745;SDS011;21870;42.812;74.628;2023-07-28T02:31:42;14.10;;;4.38;;
35745;SDS011;21870;42.812;74.628;2023-07-28T02:34:09;8.38;;;4.03;;
35745;SDS011;21870;42.812;74.628;2023-07-28T02:36:35;8.02;;;3.50;;
35745;SDS011;21870;42.812;74.628;2023-07-28T02:39:01;8.15;;;3.72;;
35745;SDS011;21870;42.812;74.628;2023-07-28T02:41:27;11.52;;;3.90;;
35745;SDS011;21870;42.812;74.628;2023-07-28T02:43:53;10.00;;;4.20;;
35745;SDS011;21870;42.812;74.628;2023-07-28T02:46:19;13.57;;;6.75;;
35745;SDS011;21870;42.812;74.628;2023-07-28T02:48:45;11.73;;;6.75;;
35745;SDS011;21870;42.812;74.628;2023-07-28T02:51:14;17.38;;;8.10;;
35745;SDS011;21870;42.812;74.628;2023-07-28T02:53:40;19.30;;;7.18;;
35745;SDS011;21870;42.812;74.628;2023-07-28T02:56:06;15.02;;;6.47;;
35745;SDS011;21870;42.812;74.628;2023-07-28T02:58:33;10.43;;;5.20;;
35745;SDS011;21870;42.812;74.628;2023-07-28T03:00:59;16.17;;;5.78;;
35745;SDS011;21870;42.812;74.628;2023-07-28T03:03:25;16.80;;;4.68;;
35745;SDS011;21870;42.812;74.628;2023-07-28T03:05:51;11.82;;;4.97;;
35745;SDS011;21870;42.812;74.628;2023-07-28T03:08:19;14.48;;;4.40;;
35745;SDS011;21870;42.812;74.628;2023-07-28T03:10:46;14.73;;;4.65;;
35745;SDS011;21870;42.812;74.628;2023-07-28T03:13:12;22.48;;;5.20;;
35745;SDS011;21870;42.812;74.628;2023-07-28T03:15:38;11.45;;;4.38;;
35745;SDS011;21870;42.812;74.628;2023-07-28T03:18:04;13.73;;;4.63;;
35745;SDS011;21870;42.812;74.628;2023-07-28T03:20:30;12.85;;;4.50;;
35745;SDS011;21870;42.812;74.628;2023-07-28T03:22:56;11.77;;;4.45;;
35745;SDS011;21870;42.812;74.628;2023-07-28T03:25:22;12.65;;;3.95;;
35745;SDS011;21870;42.812;74.628;2023-07-28T03:58:07;15.70;;;4.20;;
35745;SDS011;21870;42.812;74.628;2023-07-28T04:00:33;14.77;;;4.25;;
35745;SDS011;21870;42.812;74.628;2023-07-28T04:02:58;25.40;;;4.80;;
35745;SDS011;21870;42.812;74.628;2023-07-28T04:05:24;20.85;;;4.68;;
35745;SDS011;21870;42.812;74.628;2023-07-28T04:07:50;19.00;;;4.38;;
35745;SDS011;21870;42.812;74.628;2023-07-28T04:10:16;15.80;;;3.70;;
35745;SDS011;21870;42.812;74.628;2023-07-28T04:12:42;10.73;;;3.58;;
35745;SDS011;21870;42.812;74.628;2023-07-28T04:15:08;15.60;;;3.70;;
35745;SDS011;21870;42.812;74.628;2023-07-28T04:17:34;12.50;;;3.83;;
35745;SDS011;21870;42.812;74.628;2023-07-28T04:20:00;11.00;;;3.53;;
35745;SDS011;21870;42.812;74.628;2023-07-28T04:22:27;15.13;;;4.28;;
35745;SDS011;21870;42.812;74.628;2023-07-28T04:24:53;11.57;;;5.32;;
35745;SDS011;21870;42.812;74.628;2023-07-28T04:27:19;14.13;;;4.32;;
35745;SDS011;21870;42.812;74.628;2023-07-28T04:29:45;18.13;;;3.90;;
35745;SDS011;21870;42.812;74.628;2023-07-28T04:32:11;12.45;;;4.28;;
35745;SDS011;21870;42.812;74.628;2023-07-28T04:34:37;21.25;;;4.35;;
35745;SDS011;21870;42.812;74.628;2023-07-28T04:37:03;17.38;;;4.05;;
35745;SDS011;21870;42.812;74.628;2023-07-28T04:39:29;13.20;;;3.90;;
35745;SDS011;21870;42.812;74.628;2023-07-28T04:41:55;12.30;;;3.60;;
35745;SDS011;21870;42.812;74.628;2023-07-28T04:44:21;15.20;;;4.40;;
35745;SDS011;21870;42.812;74.628;2023-07-28T04:46:47;21.15;;;4.20;;
35745;SDS011;21870;42.812;74.628;2023-07-28T04:49:13;12.88;;;3.85;;
35745;SDS011;21870;42.812;74.628;2023-07-28T04:51:39;20.08;;;4.47;;
35745;SDS011;21870;42.812;74.628;2023-07-28T04:54:05;13.73;;;4.55;;
35745;SDS011;21870;42.812;74.628;2023-07-28T04:56:31;13.20;;;3.95;;
35745;SDS011;21870;42.812;74.628;2023-07-28T04:58:57;10.73;;;3.42;;
35745;SDS011;21870;42.812;74.628;2023-07-28T05:01:24;11.02;;;4.00;;
35745;SDS011;21870;42.812;74.628;2023-07-28T05:03:50;15.60;;;3.80;;
35745;SDS011;21870;42.812;74.628;2023-07-28T05:06:16;8.20;;;2.92;;
35745;SDS011;21870;42.812;74.628;2023-07-28T05:08:42;10.52;;;3.53;;
35745;SDS011;21870;42.812;74.628;2023-07-28T05:11:08;7.13;;;2.75;;
35745;SDS011;21870;42.812;74.628;2023-07-28T05:13:34;9.98;;;3.80;;
35745;SDS011;21870;42.812;74.628;2023-07-28T05:16:00;16.27;;;4.28;;
35745;SDS011;21870;42.812;74.628;2023-07-28T05:18:26;11.63;;;3.15;;
35745;SDS011;21870;42.812;74.628;2023-07-28T05:20:52;10.70;;;3.65;;
35745;SDS011;21870;42.812;74.628;2023-07-28T05:23:18;6.50;;;3.05;;
35745;SDS011;21870;42.812;74.628;2023-07-28T05:25:44;9.98;;;2.45;;
35745;SDS011;21870;42.812;74.628;2023-07-28T05:28:10;12.48;;;3.28;;
35745;SDS011;21870;42.812;74.628;2023-07-28T05:30:36;14.38;;;3.10;;
35745;SDS011;21870;42.812;74.628;2023-07-28T05:33:02;9.30;;;2.67;;
35745;SDS011;21870;42.812;74.628;2023-07-28T05:35:29;7.80;;;2.45;;
35745;SDS011;21870;42.812;74.628;2023-07-28T05:37:54;6.95;;;3.22;;
35745;SDS011;21870;42.812;74.628;2023-07-28T05:40:21;11.40;;;3.28;;
35745;SDS011;21870;42.812;74.628;2023-07-28T05:42:47;11.57;;;2.97;;
35745;SDS011;21870;42.812;74.628;2023-07-28T05:45:13;8.50;;;2.97;;
35745;SDS011;21870;42.812;74.628;2023-07-28T05:47:39;5.18;;;2.40;;
35745;SDS011;21870;42.812;74.628;2023-07-28T05:50:05;6.57;;;2.65;;
35745;SDS011;21870;42.812;74.628;2023-07-28T05:52:32;16.40;;;3.90;;
35745;SDS011;21870;42.812;74.628;2023-07-28T05:54:57;10.48;;;2.95;;
35745;SDS011;21870;42.812;74.628;2023-07-28T05:57:23;6.90;;;2.65;;
35745;SDS011;21870;42.812;74.628;2023-07-28T05:59:50;10.02;;;2.53;;
35745;SDS011;21870;42.812;74.628;2023-07-28T06:02:16;12.00;;;2.90;;
35745;SDS011;21870;42.812;74.628;2023-07-28T06:04:42;9.40;;;3.10;;
35745;SDS011;21870;42.812;74.628;2023-07-28T06:07:09;5.45;;;2.60;;
35745;SDS011;21870;42.812;74.628;2023-07-28T06:09:35;10.13;;;2.92;;
35745;SDS011;21870;42.812;74.628;2023-07-28T06:12:01;6.00;;;2.10;;
35745;SDS011;21870;42.812;74.628;2023-07-28T06:14:27;6.45;;;2.58;;
35745;SDS011;21870;42.812;74.628;2023-07-28T06:16:53;10.68;;;2.95;;
35745;SDS011;21870;42.812;74.628;2023-07-28T06:19:19;7.55;;;2.78;;
35745;SDS011;21870;42.812;74.628;2023-07-28T06:21:49;10.27;;;3.08;;
35745;SDS011;21870;42.812;74.628;2023-07-28T06:24:16;16.80;;;3.67;;
35745;SDS011;21870;42.812;74.628;2023-07-28T06:26:42;10.38;;;3.55;;
35745;SDS011;21870;42.812;74.628;2023-07-28T06:29:08;9.90;;;3.35;;
35745;SDS011;21870;42.812;74.628;2023-07-28T06:31:35;13.10;;;3.20;;
35745;SDS011;21870;42.812;74.628;2023-07-28T06:34:01;12.40;;;3.38;;
35745;SDS011;21870;42.812;74.628;2023-07-28T06:36:27;9.88;;;4.00;;
35745;SDS011;21870;42.812;74.628;2023-07-28T06:38:53;13.75;;;4.20;;
35745;SDS011;21870;42.812;74.628;2023-07-28T06:41:20;15.95;;;3.85;;
35745;SDS011;21870;42.812;74.628;2023-07-28T06:43:47;9.32;;;3.53;;
35745;SDS011;21870;42.812;74.628;2023-07-28T06:46:14;11.77;;;4.55;;
35745;SDS011;21870;42.812;74.628;2023-07-28T06:48:40;9.02;;;3.30;;
35745;SDS011;21870;42.812;74.628;2023-07-28T06:51:06;7.53;;;3.13;;
35745;SDS011;21870;42.812;74.628;2023-07-28T06:53:32;10.02;;;2.90;;
35745;SDS011;21870;42.812;74.628;2023-07-28T06:55:59;11.75;;;3.00;;
35745;SDS011;21870;42.812;74.628;2023-07-28T06:58:26;5.68;;;2.50;;
35745;SDS011;21870;42.812;74.628;2023-07-28T07:00:52;12.02;;;3.42;;
35745;SDS011;21870;42.812;74.628;2023-07-28T07:03:20;11.75;;;3.33;;
35745;SDS011;21870;42.812;74.628;2023-07-28T07:05:48;10.30;;;3.10;;
35745;SDS011;21870;42.812;74.628;2023-07-28T07:08:14;8.50;;;2.63;;
35745;SDS011;21870;42.812;74.628;2023-07-28T07:10:40;7.15;;;2.88;;
35745;SDS011;21870;42.812;74.628;2023-07-28T07:13:13;32.55;;;5.65;;
35745;SDS011;21870;42.812;74.628;2023-07-28T07:15:39;4.78;;;2.45;;
35745;SDS011;21870;42.812;74.628;2023-07-28T07:18:07;12.25;;;3.20;;
35745;SDS011;21870;42.812;74.628;2023-07-28T07:20:36;12.95;;;3.50;;
35745;SDS011;21870;42.812;74.628;2023-07-28T07:23:06;9.27;;;2.42;;
35745;SDS011;21870;42.812;74.628;2023-07-28T07:25:32;13.93;;;3.00;;
35745;SDS011;21870;42.812;74.628;2023-07-28T07:28:01;12.55;;;3.30;;
35745;SDS011;21870;42.812;74.628;2023-07-28T07:30:27;11.40;;;3.28;;
35745;SDS011;21870;42.812;74.628;2023-07-28T07:32:54;18.90;;;3.05;;
35745;SDS011;21870;42.812;74.628;2023-07-28T07:35:20;8.73;;;3.00;;
35745;SDS011;21870;42.812;74.628;2023-07-28T07:37:46;7.13;;;3.10;;
35745;SDS011;21870;42.812;74.628;2023-07-28T07:40:12;10.75;;;3.10;;
35745;SDS011;21870;42.812;74.628;2023-07-28T07:42:41;7.50;;;2.92;;
35745;SDS011;21870;42.812;74.628;2023-07-28T07:45:09;10.95;;;2.92;;
35745;SDS011;21870;42.812;74.628;2023-07-28T07:47:35;12.48;;;3.22;;
35745;SDS011;21870;42.812;74.628;2023-07-28T07:50:01;11.07;;;3.15;;
35745;SDS011;21870;42.812;74.628;2023-07-28T07:52:28;9.75;;;3.10;;
35745;SDS011;21870;42.812;74.628;2023-07-28T07:54:54;9.30;;;2.95;;
35745;SDS011;21870;42.812;74.628;2023-07-28T07:57:20;8.98;;;2.72;;
35745;SDS011;21870;42.812;74.628;2023-07-28T07:59:46;13.13;;;3.17;;
35745;SDS011;21870;42.812;74.628;2023-07-28T08:02:18;11.40;;;3.72;;
35745;SDS011;21870;42.812;74.628;2023-07-28T08:04:44;8.35;;;2.85;;
35745;SDS011;21870;42.812;74.628;2023-07-28T08:07:10;6.60;;;3.17;;
35745;SDS011;21870;42.812;74.628;2023-07-28T08:09:39;14.88;;;3.35;;
35745;SDS011;21870;42.812;74.628;2023-07-28T08:12:05;10.98;;;3.28;;
35745;SDS011;21870;42.812;74.628;2023-07-28T08:14:32;12.88;;;3.83;;
35745;SDS011;21870;42.812;74.628;2023-07-28T08:16:58;9.75;;;3.20;;
35745;SDS011;21870;42.812;74.628;2023-07-28T08:19:24;11.07;;;2.80;;
35745;SDS011;21870;42.812;74.628;2023-07-28T08:21:50;16.30;;;3.80;;
35745;SDS011;21870;42.812;74.628;2023-07-28T08:24:16;11.85;;;3.30;;
35745;SDS011;21870;42.812;74.628;2023-07-28T08:26:42;22.80;;;5.13;;
35745;SDS011;21870;42.812;74.628;2023-07-28T08:29:08;17.80;;;3.38;;
35745;SDS011;21870;42.812;74.628;2023-07-28T08:31:34;7.13;;;3.28;;
35745;SDS011;21870;42.812;74.628;2023-07-28T08:34:00;10.95;;;3.30;;
35745;SDS011;21870;42.812;74.628;2023-07-28T08:36:26;8.10;;;3.65;;
35745;SDS011;21870;42.812;74.628;2023-07-28T08:38:53;11.63;;;3.00;;
35745;SDS011;21870;42.812;74.628;2023-07-28T08:41:19;6.68;;;2.75;;
35745;SDS011;21870;42.812;74.628;2023-07-28T08:43:45;10.07;;;3.60;;
35745;SDS011;21870;42.812;74.628;2023-07-28T08:46:11;8.27;;;3.47;;
35745;SDS011;21870;42.812;74.628;2023-07-28T08:48:38;12.85;;;3.85;;
35745;SDS011;21870;42.812;74.628;2023-07-28T08:51:04;10.75;;;3.45;;
35745;SDS011;21870;42.812;74.628;2023-07-28T08:53:30;17.17;;;4.05;;
35745;SDS011;21870;42.812;74.628;2023-07-28T08:55:56;14.00;;;3.13;;
35745;SDS011;21870;42.812;74.628;2023-07-28T08:58:22;13.27;;;3.63;;
35745;SDS011;21870;42.812;74.628;2023-07-28T09:00:52;7.03;;;3.08;;
35745;SDS011;21870;42.812;74.628;2023-07-28T09:03:18;12.30;;;2.83;;
35745;SDS011;21870;42.812;74.628;2023-07-28T09:05:45;12.32;;;3.47;;
35745;SDS011;21870;42.812;74.628;2023-07-28T09:08:12;13.57;;;3.03;;
35745;SDS011;21870;42.812;74.628;2023-07-28T09:10:46;8.23;;;2.78;;
35745;SDS011;21870;42.812;74.628;2023-07-28T09:13:17;8.10;;;2.42;;
35745;SDS011;21870;42.812;74.628;2023-07-28T09:15:45;7.95;;;2.70;;
35745;SDS011;21870;42.812;74.628;2023-07-28T09:18:15;10.30;;;2.70;;
35745;SDS011;21870;42.812;74.628;2023-07-28T09:20:42;4.30;;;2.30;;
35745;SDS011;21870;42.812;74.628;2023-07-28T09:23:09;8.90;;;2.47;;
35745;SDS011;21870;42.812;74.628;2023-07-28T09:25:36;7.47;;;2.10;;
35745;SDS011;21870;42.812;74.628;2023-07-28T09:28:03;8.25;;;2.20;;
35745;SDS011;21870;42.812;74.628;2023-07-28T09:30:48;7.07;;;2.72;;
35745;SDS011;21870;42.812;74.628;2023-07-28T09:33:31;10.45;;;2.55;;
35745;SDS011;21870;42.812;74.628;2023-07-28T09:36:06;9.43;;;2.80;;
35745;SDS011;21870;42.812;74.628;2023-07-28T09:38:35;10.65;;;2.60;;
35745;SDS011;21870;42.812;74.628;2023-07-28T09:41:04;10.48;;;2.47;;
35745;SDS011;21870;42.812;74.628;2023-07-28T09:43:37;10.02;;;2.45;;
35745;SDS011;21870;42.812;74.628;2023-07-28T09:46:07;10.52;;;3.95;;
35745;SDS011;21870;42.812;74.628;2023-07-28T09:48:34;9.68;;;3.08;;
35745;SDS011;21870;42.812;74.628;2023-07-28T09:51:03;7.13;;;2.60;;
35745;SDS011;21870;42.812;74.628;2023-07-28T09:53:35;10.38;;;2.70;;
35745;SDS011;21870;42.812;74.628;2023-07-28T09:56:12;8.65;;;2.20;;
35745;SDS011;21870;42.812;74.628;2023-07-28T09:58:44;10.85;;;2.67;;
35745;SDS011;21870;42.812;74.628;2023-07-28T10:01:16;6.13;;;2.03;;
35745;SDS011;21870;42.812;74.628;2023-07-28T10:03:43;6.75;;;2.60;;
35745;SDS011;21870;42.812;74.628;2023-07-28T10:06:10;12.48;;;2.80;;
35745;SDS011;21870;42.812;74.628;2023-07-28T10:08:36;10.30;;;3.92;;
35745;SDS011;21870;42.812;74.628;2023-07-28T10:11:03;10.68;;;2.13;;
35745;SDS011;21870;42.812;74.628;2023-07-28T10:13:35;13.88;;;2.20;;
35745;SDS011;21870;42.812;74.628;2023-07-28T10:16:08;6.82;;;2.33;;
35745;SDS011;21870;42.812;74.628;2023-07-28T10:18:35;5.57;;;1.95;;
35745;SDS011;21870;42.812;74.628;2023-07-28T10:21:05;4.38;;;1.92;;
35745;SDS011;21870;42.812;74.628;2023-07-28T10:23:33;6.15;;;2.10;;
35745;SDS011;21870;42.812;74.628;2023-07-28T10:26:03;5.30;;;2.40;;
35745;SDS011;21870;42.812;74.628;2023-07-28T10:28:39;5.10;;;2.35;;
35745;SDS011;21870;42.812;74.628;2023-07-28T10:31:09;6.68;;;2.08;;
35745;SDS011;21870;42.812;74.628;2023-07-28T10:38:38;9.43;;;2.35;;
35745;SDS011;21870;42.812;74.628;2023-07-28T10:41:08;4.55;;;2.22;;
35745;SDS011;21870;42.812;74.628;2023-07-28T10:43:43;5.47;;;2.15;;
35745;SDS011;21870;42.812;74.628;2023-07-28T10:46:10;5.00;;;2.25;;
35745;SDS011;21870;42.812;74.628;2023-07-28T10:48:42;6.38;;;2.30;;
35745;SDS011;21870;42.812;74.628;2023-07-28T10:51:10;11.02;;;2.45;;
35745;SDS011;21870;42.812;74.628;2023-07-28T10:53:36;9.48;;;2.15;;
35745;SDS011;21870;42.812;74.628;2023-07-28T10:56:03;8.10;;;2.17;;
35745;SDS011;21870;42.812;74.628;2023-07-28T10:58:33;8.18;;;2.30;;
35745;SDS011;21870;42.812;74.628;2023-07-28T11:01:01;4.13;;;1.92;;
35745;SDS011;21870;42.812;74.628;2023-07-28T11:03:27;6.75;;;2.42;;
35745;SDS011;21870;42.812;74.628;2023-07-28T11:05:54;9.38;;;2.45;;
35745;SDS011;21870;42.812;74.628;2023-07-28T11:08:22;5.20;;;2.03;;
35745;SDS011;21870;42.812;74.628;2023-07-28T11:10:48;9.27;;;2.40;;
35745;SDS011;21870;42.812;74.628;2023-07-28T11:13:16;4.78;;;2.13;;
35745;SDS011;21870;42.812;74.628;2023-07-28T11:15:42;10.18;;;1.90;;
35745;SDS011;21870;42.812;74.628;2023-07-28T11:18:09;6.70;;;2.17;;
35745;SDS011;21870;42.812;74.628;2023-07-28T11:20:36;7.50;;;2.25;;
35745;SDS011;21870;42.812;74.628;2023-07-28T11:23:02;7.13;;;2.20;;
35745;SDS011;21870;42.812;74.628;2023-07-28T11:25:30;8.60;;;2.83;;
35745;SDS011;21870;42.812;74.628;2023-07-28T11:27:57;8.93;;;2.13;;
35745;SDS011;21870;42.812;74.628;2023-07-28T11:30:26;10.50;;;2.30;;
35745;SDS011;21870;42.812;74.628;2023-07-28T11:32:52;6.88;;;2.58;;
35745;SDS011;21870;42.812;74.628;2023-07-28T11:35:20;8.70;;;2.50;;
35745;SDS011;21870;42.812;74.628;2023-07-28T11:37:48;3.20;;;1.83;;
35745;SDS011;21870;42.812;74.628;2023-07-28T11:40:16;10.40;;;2.47;;
35745;SDS011;21870;42.812;74.628;2023-07-28T11:42:45;6.97;;;2.00;;
35745;SDS011;21870;42.812;74.628;2023-07-28T11:45:14;4.78;;;2.30;;
35745;SDS011;21870;42.812;74.628;2023-07-28T11:47:57;7.07;;;2.30;;
35745;SDS011;21870;42.812;74.628;2023-07-28T11:50:38;6.90;;;2.72;;
35745;SDS011;21870;42.812;74.628;2023-07-28T11:53:05;9.48;;;2.70;;
35745;SDS011;21870;42.812;74.628;2023-07-28T11:55:36;7.00;;;2.40;;
35745;SDS011;21870;42.812;74.628;2023-07-28T11:58:04;7.95;;;2.65;;
35745;SDS011;21870;42.812;74.628;2023-07-28T12:00:32;7.10;;;2.33;;
35745;SDS011;21870;42.812;74.628;2023-07-28T12:03:11;6.97;;;1.92;;
35745;SDS011;21870;42.812;74.628;2023-07-28T12:05:38;4.30;;;2.08;;
35745;SDS011;21870;42.812;74.628;2023-07-28T12:08:05;5.78;;;2.35;;
35745;SDS011;21870;42.812;74.628;2023-07-28T12:10:34;14.13;;;2.50;;
35745;SDS011;21870;42.812;74.628;2023-07-28T12:13:04;4.28;;;1.73;;
35745;SDS011;21870;42.812;74.628;2023-07-28T12:15:31;5.15;;;3.05;;
35745;SDS011;21870;42.812;74.628;2023-07-28T12:18:02;3.72;;;2.13;;
35745;SDS011;21870;42.812;74.628;2023-07-28T12:20:35;4.47;;;2.13;;
35745;SDS011;21870;42.812;74.628;2023-07-28T12:23:02;7.82;;;2.78;;
35745;SDS011;21870;42.812;74.628;2023-07-28T12:25:29;9.75;;;2.42;;
35745;SDS011;21870;42.812;74.628;2023-07-28T12:27:55;4.60;;;2.03;;
35745;SDS011;21870;42.812;74.628;2023-07-28T12:30:22;6.60;;;2.60;;
35745;SDS011;21870;42.812;74.628;2023-07-28T12:32:48;7.13;;;3.15;;
35745;SDS011;21870;42.812;74.628;2023-07-28T12:35:14;4.97;;;2.55;;
35745;SDS011;21870;42.812;74.628;2023-07-28T12:37:40;4.97;;;2.47;;
35745;SDS011;21870;42.812;74.628;2023-07-28T12:40:07;9.13;;;2.50;;
35745;SDS011;21870;42.812;74.628;2023-07-28T12:42:33;4.93;;;2.10;;
35745;SDS011;21870;42.812;74.628;2023-07-28T12:44:59;4.03;;;1.95;;
35745;SDS011;21870;42.812;74.628;2023-07-28T12:47:25;7.68;;;2.40;;
35745;SDS011;21870;42.812;74.628;2023-07-28T12:49:51;3.50;;;1.80;;
35745;SDS011;21870;42.812;74.628;2023-07-28T12:52:18;3.00;;;2.10;;
35745;SDS011;21870;42.812;74.628;2023-07-28T12:54:45;6.25;;;2.25;;
35745;SDS011;21870;42.812;74.628;2023-07-28T12:57:12;6.13;;;2.20;;
35745;SDS011;21870;42.812;74.628;2023-07-28T12:59:38;8.20;;;2.03;;
35745;SDS011;21870;42.812;74.628;2023-07-28T13:02:04;10.25;;;2.50;;
35745;SDS011;21870;42.812;74.628;2023-07-28T13:04:31;5.97;;;2.42;;
35745;SDS011;21870;42.812;74.628;2023-07-28T13:06:57;6.78;;;2.50;;
35745;SDS011;21870;42.812;74.628;2023-07-28T13:09:23;6.22;;;2.03;;
35745;SDS011;21870;42.812;74.628;2023-07-28T13:11:49;5.50;;;2.40;;
35745;SDS011;21870;42.812;74.628;2023-07-28T13:14:15;6.45;;;3.00;;
35745;SDS011;21870;42.812;74.628;2023-07-28T13:16:41;2.90;;;1.90;;
35745;SDS011;21870;42.812;74.628;2023-07-28T13:19:07;7.72;;;2.78;;
35745;SDS011;21870;42.812;74.628;2023-07-28T13:21:33;8.07;;;3.15;;
35745;SDS011;21870;42.812;74.628;2023-07-28T13:23:59;7.43;;;3.72;;
35745;SDS011;21870;42.812;74.628;2023-07-28T13:26:25;9.85;;;7.15;;
35745;SDS011;21870;42.812;74.628;2023-07-28T13:28:51;8.40;;;3.50;;
35745;SDS011;21870;42.812;74.628;2023-07-28T13:31:17;8.82;;;2.90;;
35745;SDS011;21870;42.812;74.628;2023-07-28T13:33:44;5.82;;;2.78;;
35745;SDS011;21870;42.812;74.628;2023-07-28T13:36:11;9.55;;;2.60;;
35745;SDS011;21870;42.812;74.628;2023-07-28T13:38:37;9.43;;;3.17;;
35745;SDS011;21870;42.812;74.628;2023-07-28T13:41:06;9.85;;;3.22;;
35745;SDS011;21870;42.812;74.628;2023-07-28T13:43:32;10.70;;;2.50;;
35745;SDS011;21870;42.812;74.628;2023-07-28T13:46:06;5.70;;;2.28;;
35745;SDS011;21870;42.812;74.628;2023-07-28T13:48:32;7.57;;;2.60;;
35745;SDS011;21870;42.812;74.628;2023-07-28T13:51:01;4.22;;;2.03;;
35745;SDS011;21870;42.812;74.628;2023-07-28T13:53:27;6.35;;;2.50;;
35745;SDS011;21870;42.812;74.628;2023-07-28T13:55:54;5.70;;;2.33;;
35745;SDS011;21870;42.812;74.628;2023-07-28T13:58:20;6.65;;;2.55;;
35745;SDS011;21870;42.812;74.628;2023-07-28T14:00:46;4.20;;;2.00;;
35745;SDS011;21870;42.812;74.628;2023-07-28T14:03:12;5.13;;;2.47;;
35745;SDS011;21870;42.812;74.628;2023-07-28T14:05:39;6.07;;;2.92;;
35745;SDS011;21870;42.812;74.628;2023-07-28T14:08:05;7.05;;;3.53;;
35745;SDS011;21870;42.812;74.628;2023-07-28T14:10:31;5.55;;;3.03;;
35745;SDS011;21870;42.812;74.628;2023-07-28T14:12:57;5.95;;;2.65;;
35745;SDS011;21870;42.812;74.628;2023-07-28T14:15:24;6.43;;;2.30;;
35745;SDS011;21870;42.812;74.628;2023-07-28T14:17:50;10.23;;;2.97;;
35745;SDS011;21870;42.812;74.628;2023-07-28T14:20:16;7.85;;;2.60;;
35745;SDS011;21870;42.812;74.628;2023-07-28T14:22:42;7.57;;;2.38;;
35745;SDS011;21870;42.812;74.628;2023-07-28T14:25:08;8.55;;;2.88;;
35745;SDS011;21870;42.812;74.628;2023-07-28T14:27:34;6.50;;;2.30;;
35745;SDS011;21870;42.812;74.628;2023-07-28T14:30:00;11.77;;;3.00;;
35745;SDS011;21870;42.812;74.628;2023-07-28T14:32:26;6.18;;;2.63;;
35745;SDS011;21870;42.812;74.628;2023-07-28T14:34:52;9.35;;;3.25;;
35745;SDS011;21870;42.812;74.628;2023-07-28T14:37:20;10.63;;;3.08;;
35745;SDS011;21870;42.812;74.628;2023-07-28T14:39:47;8.82;;;3.45;;
35745;SDS011;21870;42.812;74.628;2023-07-28T14:42:13;10.20;;;3.72;;
35745;SDS011;21870;42.812;74.628;2023-07-28T14:44:41;4.78;;;3.10;;
35745;SDS011;21870;42.812;74.628;2023-07-28T14:47:07;9.48;;;3.85;;
35745;SDS011;21870;42.812;74.628;2023-07-28T14:49:33;8.73;;;3.58;;
35745;SDS011;21870;42.812;74.628;2023-07-28T14:51:59;6.82;;;3.00;;
35745;SDS011;21870;42.812;74.628;2023-07-28T14:54:25;6.68;;;3.05;;
35745;SDS011;21870;42.812;74.628;2023-07-28T14:56:51;6.45;;;2.83;;
35745;SDS011;21870;42.812;74.628;2023-07-28T14:59:17;5.57;;;2.47;;
35745;SDS011;21870;42.812;74.628;2023-07-28T15:01:43;6.53;;;2.90;;
35745;SDS011;21870;42.812;74.628;2023-07-28T15:04:09;7.43;;;2.60;;
35745;SDS011;21870;42.812;74.628;2023-07-28T15:06:38;8.13;;;2.85;;
35745;SDS011;21870;42.812;74.628;2023-07-28T15:09:05;8.27;;;2.50;;